sensor_id;sensor_type;location;lat;lon;timestamp;pressure;altitude;pressure_sealevel;temperature;humidity
15444;BME280;7822;48.146;11.576;2023-02-18T00:00:31;96016.31;;;14.29;61.87
15444;BME280;7822;48.146;11.576;2023-02-18T00:02:58;96009.31;;;14.30;61.86
15444;BME280;7822;48.146;11.576;2023-02-18T00:05:29;96006.72;;;14.30;61.99
15444;BME280;7822;48.146;11.576;2023-02-18T00:07:56;96010.13;;;14.30;62.07
15444;BME280;7822;48.146;11.576;2023-02-18T00:10:24;96007.50;;;14.30;62.06
15444;BME280;7822;48.146;11.576;2023-02-18T00:12:51;96009.31;;;14.30;61.93
15444;BME280;7822;48.146;11.576;2023-02-18T00:15:19;95998.03;;;14.29;61.90
15444;BME280;7822;48.146;11.576;2023-02-18T00:17:47;96000.53;;;14.31;61.92
15444;BME280;7822;48.146;11.576;2023-02-18T00:20:14;95994.47;;;14.30;62.13
15444;BME280;7822;48.146;11.576;2023-02-18T00:22:43;95990.91;;;14.31;61.87
15444;BME280;7822;48.146;11.576;2023-02-18T00:25:11;95977.88;;;14.31;62.07
15444;BME280;7822;48.146;11.576;2023-02-18T00:27:39;95979.50;;;14.32;61.89
15444;BME280;7822;48.146;11.576;2023-02-18T00:30:07;95977.88;;;14.31;62.26
15444;BME280;7822;48.146;11.576;2023-02-18T00:32:35;95963.03;;;14.32;62.09
15444;BME280;7822;48.146;11.576;2023-02-18T00:35:03;95975.13;;;14.33;62.06
15444;BME280;7822;48.146;11.576;2023-02-18T00:37:30;95967.44;;;14.31;62.08
15444;BME280;7822;48.146;11.576;2023-02-18T00:40:02;95967.44;;;14.31;61.95
15444;BME280;7822;48.146;11.576;2023-02-18T00:42:30;95970.88;;;14.32;62.01
15444;BME280;7822;48.146;11.576;2023-02-18T00:44:57;95973.47;;;14.32;62.19
15444;BME280;7822;48.146;11.576;2023-02-18T00:47:25;95975.25;;;14.31;62.09
15444;BME280;7822;48.146;11.576;2023-02-18T00:49:53;95970.16;;;14.30;62.10
15444;BME280;7822;48.146;11.576;2023-02-18T00:52:20;95970.97;;;14.30;61.65
15444;BME280;7822;48.146;11.576;2023-02-18T00:54:48;95972.66;;;14.31;62.09
15444;BME280;7822;48.146;11.576;2023-02-18T00:57:17;95976.19;;;14.30;61.71
15444;BME280;7822;48.146;11.576;2023-02-18T00:59:45;95967.56;;;14.30;62.02
15444;BME280;7822;48.146;11.576;2023-02-18T01:02:13;95971.94;;;14.29;61.96
15444;BME280;7822;48.146;11.576;2023-02-18T01:04:40;95974.56;;;14.29;62.00
15444;BME280;7822;48.146;11.576;2023-02-18T01:07:08;95980.59;;;14.30;62.10
15444;BME280;7822;48.146;11.576;2023-02-18T01:09:36;95970.16;;;14.30;62.08
15444;BME280;7822;48.146;11.576;2023-02-18T01:12:04;95977.25;;;14.28;62.02
15444;BME280;7822;48.146;11.576;2023-02-18T01:14:33;95964.19;;;14.28;61.96
15444;BME280;7822;48.146;11.576;2023-02-18T01:17:01;95973.00;;;14.27;62.03
15444;BME280;7822;48.146;11.576;2023-02-18T01:19:29;95966.81;;;14.28;62.02
15444;BME280;7822;48.146;11.576;2023-02-18T01:21:57;95963.25;;;14.29;62.03
15444;BME280;7822;48.146;11.576;2023-02-18T01:24:24;95953.69;;;14.29;61.86
15444;BME280;7822;48.146;11.576;2023-02-18T01:26:52;95955.56;;;14.27;62.23
15444;BME280;7822;48.146;11.576;2023-02-18T01:29:20;95958.97;;;14.28;61.79
15444;BME280;7822;48.146;11.576;2023-02-18T01:31:49;95951.16;;;14.28;62.08
15444;BME280;7822;48.146;11.576;2023-02-18T01:34:17;95952.94;;;14.27;62.23
15444;BME280;7822;48.146;11.576;2023-02-18T01:36:44;95946.91;;;14.27;62.15
15444;BME280;7822;48.146;11.576;2023-02-18T01:39:12;95942.50;;;14.27;62.19
15444;BME280;7822;48.146;11.576;2023-02-18T01:41:40;95932.88;;;14.28;62.11
15444;BME280;7822;48.146;11.576;2023-02-18T01:44:16;95943.31;;;14.28;62.07
15444;BME280;7822;48.146;11.576;2023-02-18T01:46:44;95941.69;;;14.27;62.01
15444;BME280;7822;48.146;11.576;2023-02-18T01:49:15;95950.34;;;14.27;61.90
15444;BME280;7822;48.146;11.576;2023-02-18T01:51:48;95943.31;;;14.28;61.73
15444;BME280;7822;48.146;11.576;2023-02-18T01:54:19;95938.03;;;14.29;61.95
15444;BME280;7822;48.146;11.576;2023-02-18T01:56:50;95936.31;;;14.28;61.91
15444;BME280;7822;48.146;11.576;2023-02-18T01:59:22;95932.88;;;14.28;61.75
15444;BME280;7822;48.146;11.576;2023-02-18T02:01:50;95940.63;;;14.29;61.67
15444;BME280;7822;48.146;11.576;2023-02-18T02:04:21;95940.63;;;14.29;61.95
15444;BME280;7822;48.146;11.576;2023-02-18T02:06:48;95928.41;;;14.30;61.69
15444;BME280;7822;48.146;11.576;2023-02-18T02:09:18;95930.19;;;14.29;61.73
15444;BME280;7822;48.146;11.576;2023-02-18T02:12:13;95930.19;;;14.29;61.92
15444;BME280;7822;48.146;11.576;2023-02-18T02:14:59;95931.03;;;14.30;61.72
15444;BME280;7822;48.146;11.576;2023-02-18T02:17:35;95929.22;;;14.30;61.53
15444;BME280;7822;48.146;11.576;2023-02-18T02:20:22;95921.38;;;14.30;61.91
15444;BME280;7822;48.146;11.576;2023-02-18T02:23:17;95910.16;;;14.30;61.84
15444;BME280;7822;48.146;11.576;2023-02-18T02:26:15;95912.75;;;14.30;61.93
15444;BME280;7822;48.146;11.576;2023-02-18T02:29:03;95904.94;;;14.30;61.95
15444;BME280;7822;48.146;11.576;2023-02-18T02:31:57;95913.56;;;14.30;61.54
15444;BME280;7822;48.146;11.576;2023-02-18T02:34:37;95916.16;;;14.30;61.72
15444;BME280;7822;48.146;11.576;2023-02-18T02:37:12;95915.38;;;14.30;61.61
15444;BME280;7822;48.146;11.576;2023-02-18T02:39:55;95928.41;;;14.30;61.98
15444;BME280;7822;48.146;11.576;2023-02-18T02:42:30;95914.53;;;14.29;61.78
15444;BME280;7822;48.146;11.576;2023-02-18T02:45:06;95915.38;;;14.30;62.06
15444;BME280;7822;48.146;11.576;2023-02-18T02:47:43;95898.94;;;14.28;61.66
15444;BME280;7822;48.146;11.576;2023-02-18T02:52:49;95895.53;;;14.27;61.72
15444;BME280;7822;48.146;11.576;2023-02-18T02:55:18;95894.56;;;14.28;61.57
15444;BME280;7822;48.146;11.576;2023-02-18T02:57:48;95890.31;;;14.27;61.85
15444;BME280;7822;48.146;11.576;2023-02-18T03:00:18;95883.44;;;14.26;61.52
15444;BME280;7822;48.146;11.576;2023-02-18T03:03:01;95884.25;;;14.27;62.07
15444;BME280;7822;48.146;11.576;2023-02-18T03:05:47;95882.47;;;14.27;61.53
15444;BME280;7822;48.146;11.576;2023-02-18T03:08:31;95879.03;;;14.27;61.88
15444;BME280;7822;48.146;11.576;2023-02-18T03:11:04;95877.38;;;14.26;62.04
15444;BME280;7822;48.146;11.576;2023-02-18T03:13:44;95885.09;;;14.27;61.83
15444;BME280;7822;48.146;11.576;2023-02-18T03:16:25;95881.50;;;14.28;61.92
15444;BME280;7822;48.146;11.576;2023-02-18T03:18:59;95874.66;;;14.27;61.74
15444;BME280;7822;48.146;11.576;2023-02-18T03:21:32;95885.91;;;14.28;61.88
15444;BME280;7822;48.146;11.576;2023-02-18T03:24:06;95890.31;;;14.27;61.61
15444;BME280;7822;48.146;11.576;2023-02-18T03:26:39;95885.09;;;14.27;61.74
15444;BME280;7822;48.146;11.576;2023-02-18T03:29:09;95888.50;;;14.28;61.62
15444;BME280;7822;48.146;11.576;2023-02-18T03:31:39;95883.22;;;14.29;61.68
15444;BME280;7822;48.146;11.576;2023-02-18T03:34:12;95884.94;;;14.29;61.65
15444;BME280;7822;48.146;11.576;2023-02-18T03:36:43;95889.25;;;14.30;61.61
15444;BME280;7822;48.146;11.576;2023-02-18T03:39:14;95884.84;;;14.30;61.77
15444;BME280;7822;48.146;11.576;2023-02-18T03:41:43;95877.25;;;14.27;61.79
15444;BME280;7822;48.146;11.576;2023-02-18T03:44:11;95879.63;;;14.30;61.66
15444;BME280;7822;48.146;11.576;2023-02-18T03:46:41;95875.38;;;14.29;61.78
15444;BME280;7822;48.146;11.576;2023-02-18T03:49:10;95881.44;;;14.30;61.76
15444;BME280;7822;48.146;11.576;2023-02-18T03:51:37;95884.84;;;14.30;61.57
15444;BME280;7822;48.146;11.576;2023-02-18T03:54:07;95878.91;;;14.28;61.84
15444;BME280;7822;48.146;11.576;2023-02-18T03:56:35;95880.47;;;14.31;61.53
15444;BME280;7822;48.146;11.576;2023-02-18T03:59:03;95878.00;;;14.29;61.71
15444;BME280;7822;48.146;11.576;2023-02-18T04:01:30;95878.00;;;14.29;61.81
15444;BME280;7822;48.146;11.576;2023-02-18T04:03:58;95880.47;;;14.31;62.01
15444;BME280;7822;48.146;11.576;2023-02-18T04:06:26;95888.44;;;14.29;61.69
15444;BME280;7822;48.146;11.576;2023-02-18T04:08:54;95883.06;;;14.31;61.74
15444;BME280;7822;48.146;11.576;2023-02-18T04:11:23;95878.81;;;14.30;61.64
15444;BME280;7822;48.146;11.576;2023-02-18T04:13:50;95878.81;;;14.30;61.76
15444;BME280;7822;48.146;11.576;2023-02-18T04:16:18;95878.81;;;14.30;61.85
15444;BME280;7822;48.146;11.576;2023-02-18T04:18:46;95886.66;;;14.30;61.91
15444;BME280;7822;48.146;11.576;2023-02-18T04:21:13;95881.44;;;14.30;61.95
15444;BME280;7822;48.146;11.576;2023-02-18T04:23:41;95876.28;;;14.28;61.81
15444;BME280;7822;48.146;11.576;2023-02-18T04:26:09;95878.00;;;14.29;61.90
15444;BME280;7822;48.146;11.576;2023-02-18T04:28:38;95862.34;;;14.29;61.54
15444;BME280;7822;48.146;11.576;2023-02-18T04:31:05;95878.81;;;14.30;61.75
15444;BME280;7822;48.146;11.576;2023-02-18T04:33:33;95868.38;;;14.30;61.80
15444;BME280;7822;48.146;11.576;2023-02-18T04:36:01;95880.59;;;14.29;61.70
15444;BME280;7822;48.146;11.576;2023-02-18T04:38:29;95881.44;;;14.30;62.03
15444;BME280;7822;48.146;11.576;2023-02-18T04:40:56;95880.59;;;14.29;61.83
15444;BME280;7822;48.146;11.576;2023-02-18T04:43:24;95881.44;;;14.30;61.90
15444;BME280;7822;48.146;11.576;2023-02-18T04:45:53;95885.81;;;14.29;61.55
15444;BME280;7822;48.146;11.576;2023-02-18T04:48:21;95889.34;;;14.28;61.80
15444;BME280;7822;48.146;11.576;2023-02-18T04:50:48;95886.72;;;14.28;61.51
15444;BME280;7822;48.146;11.576;2023-02-18T04:53:16;95882.47;;;14.27;61.84
15444;BME280;7822;48.146;11.576;2023-02-18T04:55:48;95886.66;;;14.30;61.67
15444;BME280;7822;48.146;11.576;2023-02-18T04:58:17;95893.72;;;14.28;61.79
15444;BME280;7822;48.146;11.576;2023-02-18T05:00:44;95884.94;;;14.29;61.97
15444;BME280;7822;48.146;11.576;2023-02-18T05:03:14;95891.94;;;14.28;61.94
15444;BME280;7822;48.146;11.576;2023-02-18T05:05:41;95885.91;;;14.28;61.53
15444;BME280;7822;48.146;11.576;2023-02-18T05:08:09;95891.03;;;14.29;61.52
15444;BME280;7822;48.146;11.576;2023-02-18T05:10:37;95887.47;;;14.30;61.55
15444;BME280;7822;48.146;11.576;2023-02-18T05:13:05;95885.69;;;14.31;61.70
15444;BME280;7822;48.146;11.576;2023-02-18T05:15:33;95874.41;;;14.30;61.74
15444;BME280;7822;48.146;11.576;2023-02-18T05:18:00;95876.91;;;14.32;61.59
15444;BME280;7822;48.146;11.576;2023-02-18T05:20:29;95868.25;;;14.31;61.85
15444;BME280;7822;48.146;11.576;2023-02-18T05:22:57;95876.78;;;14.33;61.49
15444;BME280;7822;48.146;11.576;2023-02-18T05:25:25;95876.78;;;14.33;61.68
15444;BME280;7822;48.146;11.576;2023-02-18T05:27:52;95864.56;;;14.34;62.04
15444;BME280;7822;48.146;11.576;2023-02-18T05:30:20;95864.56;;;14.34;61.79
15444;BME280;7822;48.146;11.576;2023-02-18T05:32:48;95862.63;;;14.36;61.71
15444;BME280;7822;48.146;11.576;2023-02-18T05:35:16;95867.97;;;14.34;61.48
15444;BME280;7822;48.146;11.576;2023-02-18T05:37:45;95865.25;;;14.36;61.81
15444;BME280;7822;48.146;11.576;2023-02-18T05:40:13;95866.09;;;14.36;61.67
15444;BME280;7822;48.146;11.576;2023-02-18T05:42:40;95866.09;;;14.36;61.97
15444;BME280;7822;48.146;11.576;2023-02-18T05:45:08;95860.88;;;14.36;61.64
15444;BME280;7822;48.146;11.576;2023-02-18T05:47:36;95866.88;;;14.37;61.70
15444;BME280;7822;48.146;11.576;2023-02-18T05:50:05;95870.34;;;14.37;61.67
15444;BME280;7822;48.146;11.576;2023-02-18T05:52:33;95868.56;;;14.38;61.72
15444;BME280;7822;48.146;11.576;2023-02-18T05:55:02;95861.66;;;14.37;61.70
15444;BME280;7822;48.146;11.576;2023-02-18T05:57:30;95864.28;;;14.37;61.74
15444;BME280;7822;48.146;11.576;2023-02-18T05:59:57;95864.16;;;14.38;61.67
15444;BME280;7822;48.146;11.576;2023-02-18T06:02:25;95862.50;;;14.37;61.71
15444;BME280;7822;48.146;11.576;2023-02-18T06:04:53;95873.78;;;14.38;61.74
15444;BME280;7822;48.146;11.576;2023-02-18T06:07:21;95854.81;;;14.36;61.62
15444;BME280;7822;48.146;11.576;2023-02-18T06:09:48;95870.47;;;14.36;61.79
15444;BME280;7822;48.146;11.576;2023-02-18T06:12:17;95868.69;;;14.36;61.42
15444;BME280;7822;48.146;11.576;2023-02-18T06:14:45;95879.94;;;14.37;61.85
15444;BME280;7822;48.146;11.576;2023-02-18T06:17:13;95885.16;;;14.37;61.54
15444;BME280;7822;48.146;11.576;2023-02-18T06:19:44;95869.50;;;14.37;61.62
15444;BME280;7822;48.146;11.576;2023-02-18T06:22:12;95871.31;;;14.36;61.72
15444;BME280;7822;48.146;11.576;2023-02-18T06:24:39;95879.00;;;14.38;61.50
15444;BME280;7822;48.146;11.576;2023-02-18T06:27:07;95873.09;;;14.36;61.49
15444;BME280;7822;48.146;11.576;2023-02-18T06:29:36;95877.31;;;14.37;61.54
15444;BME280;7822;48.146;11.576;2023-02-18T06:32:04;95879.94;;;14.37;61.85
15444;BME280;7822;48.146;11.576;2023-02-18T06:34:32;95885.16;;;14.37;61.70
15444;BME280;7822;48.146;11.576;2023-02-18T06:36:59;95894.78;;;14.36;61.87
15444;BME280;7822;48.146;11.576;2023-02-18T06:39:27;95875.69;;;14.36;61.80
15444;BME280;7822;48.146;11.576;2023-02-18T06:41:55;95878.31;;;14.36;61.81
15444;BME280;7822;48.146;11.576;2023-02-18T06:44:23;95897.41;;;14.36;61.66
15444;BME280;7822;48.146;11.576;2023-02-18T06:46:52;95880.06;;;14.35;61.84
15444;BME280;7822;48.146;11.576;2023-02-18T06:49:20;95890.53;;;14.35;61.97
15444;BME280;7822;48.146;11.576;2023-02-18T06:51:48;95880.78;;;14.37;61.93
15444;BME280;7822;48.146;11.576;2023-02-18T06:54:15;95884.34;;;14.36;61.93
15444;BME280;7822;48.146;11.576;2023-02-18T06:56:43;95886.81;;;14.38;62.00
15444;BME280;7822;48.146;11.576;2023-02-18T06:59:10;95872.09;;;14.37;61.82
15444;BME280;7822;48.146;11.576;2023-02-18T07:01:39;95881.59;;;14.38;61.68
15444;BME280;7822;48.146;11.576;2023-02-18T07:04:08;95874.59;;;14.38;62.03
15444;BME280;7822;48.146;11.576;2023-02-18T07:06:35;95872.94;;;14.37;61.57
15444;BME280;7822;48.146;11.576;2023-02-18T07:09:03;95875.56;;;14.37;61.69
15444;BME280;7822;48.146;11.576;2023-02-18T07:11:31;95877.22;;;14.38;61.63
15444;BME280;7822;48.146;11.576;2023-02-18T07:13:59;95874.59;;;14.38;61.47
15444;BME280;7822;48.146;11.576;2023-02-18T07:16:26;95865.94;;;14.38;61.67
15444;BME280;7822;48.146;11.576;2023-02-18T07:18:54;95863.19;;;14.39;61.58
15444;BME280;7822;48.146;11.576;2023-02-18T07:21:23;95872.81;;;14.39;61.73
15444;BME280;7822;48.146;11.576;2023-02-18T07:23:51;95871.84;;;14.40;61.78
15444;BME280;7822;48.146;11.576;2023-02-18T07:26:18;95877.91;;;14.40;61.75
15444;BME280;7822;48.146;11.576;2023-02-18T07:28:46;95882.16;;;14.41;61.83
15444;BME280;7822;48.146;11.576;2023-02-18T07:31:14;95882.16;;;14.41;61.52
15444;BME280;7822;48.146;11.576;2023-02-18T07:33:43;95882.16;;;14.41;61.68
15444;BME280;7822;48.146;11.576;2023-02-18T07:36:10;95890.81;;;14.42;61.90
15444;BME280;7822;48.146;11.576;2023-02-18T07:38:39;95877.78;;;14.42;62.02
15444;BME280;7822;48.146;11.576;2023-02-18T07:41:15;95895.09;;;14.43;61.74
15444;BME280;7822;48.146;11.576;2023-02-18T07:43:44;95885.59;;;14.42;61.73
15444;BME280;7822;48.146;11.576;2023-02-18T07:46:11;95883.81;;;14.42;61.86
15444;BME280;7822;48.146;11.576;2023-02-18T07:48:39;95876.00;;;14.42;61.64
15444;BME280;7822;48.146;11.576;2023-02-18T07:51:08;95871.59;;;14.43;61.56
15444;BME280;7822;48.146;11.576;2023-02-18T07:53:36;95875.16;;;14.42;61.80
15444;BME280;7822;48.146;11.576;2023-02-18T07:56:06;95879.56;;;14.41;61.71
15444;BME280;7822;48.146;11.576;2023-02-18T07:58:36;95881.31;;;14.41;61.72
15444;BME280;7822;48.146;11.576;2023-02-18T08:01:05;95879.56;;;14.41;61.65
15444;BME280;7822;48.146;11.576;2023-02-18T08:03:33;95874.34;;;14.41;61.75
15444;BME280;7822;48.146;11.576;2023-02-18T08:06:02;95876.94;;;14.41;61.79
15444;BME280;7822;48.146;11.576;2023-02-18T08:08:32;95869.72;;;14.54;61.56
15444;BME280;7822;48.146;11.576;2023-02-18T08:11:02;95872.47;;;14.53;61.71
15444;BME280;7822;48.146;11.576;2023-02-18T08:13:46;95859.66;;;14.50;61.85
15444;BME280;7822;48.146;11.576;2023-02-18T08:16:14;95854.59;;;14.48;61.65
15444;BME280;7822;48.146;11.576;2023-02-18T08:18:42;95857.19;;;14.48;61.82
15444;BME280;7822;48.146;11.576;2023-02-18T08:21:10;95853.06;;;14.46;61.73
15444;BME280;7822;48.146;11.576;2023-02-18T08:23:37;95850.44;;;14.46;61.72
15444;BME280;7822;48.146;11.576;2023-02-18T08:26:05;95844.38;;;14.45;61.57
15444;BME280;7822;48.146;11.576;2023-02-18T08:28:34;95846.19;;;14.45;61.58
15444;BME280;7822;48.146;11.576;2023-02-18T08:31:03;95838.47;;;14.43;61.81
15444;BME280;7822;48.146;11.576;2023-02-18T08:33:31;95829.69;;;14.44;61.57
15444;BME280;7822;48.146;11.576;2023-02-18T08:35:59;95821.03;;;14.44;61.36
15444;BME280;7822;48.146;11.576;2023-02-18T08:38:26;95811.44;;;14.44;61.47
15444;BME280;7822;48.146;11.576;2023-02-18T08:41:00;95821.63;;;14.47;61.58
15444;BME280;7822;48.146;11.576;2023-02-18T08:43:28;95812.97;;;14.47;61.87
15444;BME280;7822;48.146;11.576;2023-02-18T08:45:56;95816.50;;;14.46;61.45
15444;BME280;7822;48.146;11.576;2023-02-18T08:48:26;95809.38;;;14.48;61.54
15444;BME280;7822;48.146;11.576;2023-02-18T08:50:54;95797.41;;;14.45;61.50
15444;BME280;7822;48.146;11.576;2023-02-18T08:53:21;95804.28;;;14.46;61.42
15444;BME280;7822;48.146;11.576;2023-02-18T08:55:49;95797.28;;;14.47;61.44
15444;BME280;7822;48.146;11.576;2023-02-18T08:58:17;95812.97;;;14.47;61.24
15444;BME280;7822;48.146;11.576;2023-02-18T09:00:45;95825.03;;;14.48;61.07
15444;BME280;7822;48.146;11.576;2023-02-18T09:03:13;95811.19;;;14.47;61.25
15444;BME280;7822;48.146;11.576;2023-02-18T09:05:42;95797.28;;;14.47;61.12
15444;BME280;7822;48.146;11.576;2023-02-18T09:08:10;95805.13;;;14.47;61.40
15444;BME280;7822;48.146;11.576;2023-02-18T09:10:37;95808.69;;;14.46;61.36
15444;BME280;7822;48.146;11.576;2023-02-18T09:13:05;95796.47;;;14.46;61.31
15444;BME280;7822;48.146;11.576;2023-02-18T09:15:33;95808.69;;;14.46;61.57
15444;BME280;7822;48.146;11.576;2023-02-18T09:18:01;95812.13;;;14.46;61.37
15444;BME280;7822;48.146;11.576;2023-02-18T09:20:28;95812.97;;;14.47;61.50
15444;BME280;7822;48.146;11.576;2023-02-18T09:22:57;95803.47;;;14.46;61.21
15444;BME280;7822;48.146;11.576;2023-02-18T09:25:26;95803.47;;;14.46;61.54
15444;BME280;7822;48.146;11.576;2023-02-18T09:27:53;95801.69;;;14.46;61.29
15444;BME280;7822;48.146;11.576;2023-02-18T09:30:21;95797.41;;;14.45;61.33
15444;BME280;7822;48.146;11.576;2023-02-18T09:32:49;95786.97;;;14.45;61.24
15444;BME280;7822;48.146;11.576;2023-02-18T09:35:16;95812.13;;;14.46;61.35
15444;BME280;7822;48.146;11.576;2023-02-18T09:37:44;95805.97;;;14.47;61.23
15444;BME280;7822;48.146;11.576;2023-02-18T09:40:23;95797.28;;;14.47;61.57
15444;BME280;7822;48.146;11.576;2023-02-18T09:42:53;95793.72;;;14.48;61.25
15444;BME280;7822;48.146;11.576;2023-02-18T09:45:22;95778.19;;;14.46;61.32
15444;BME280;7822;48.146;11.576;2023-02-18T09:47:50;95781.63;;;14.47;61.30
15444;BME280;7822;48.146;11.576;2023-02-18T09:50:21;95773.78;;;14.47;61.52
15444;BME280;7822;48.146;11.576;2023-02-18T09:52:51;95766.81;;;14.47;61.63
15444;BME280;7822;48.146;11.576;2023-02-18T09:55:22;95764.31;;;14.46;61.65
15444;BME280;7822;48.146;11.576;2023-02-18T09:57:52;95759.91;;;14.46;61.36
15444;BME280;7822;48.146;11.576;2023-02-18T10:00:23;95757.31;;;14.46;61.12
15444;BME280;7822;48.146;11.576;2023-02-18T10:02:56;95760.75;;;14.47;61.24
15444;BME280;7822;48.146;11.576;2023-02-18T10:05:26;95751.25;;;14.46;61.24
15444;BME280;7822;48.146;11.576;2023-02-18T10:07:59;95745.09;;;14.47;61.31
15444;BME280;7822;48.146;11.576;2023-02-18T10:10:36;95738.09;;;14.47;61.35
15444;BME280;7822;48.146;11.576;2023-02-18T10:13:12;95739.56;;;14.50;61.30
15444;BME280;7822;48.146;11.576;2023-02-18T10:15:41;95733.41;;;14.51;61.30
15444;BME280;7822;48.146;11.576;2023-02-18T10:18:19;95734.25;;;14.51;61.24
15444;BME280;7822;48.146;11.576;2023-02-18T10:20:49;95715.00;;;14.52;61.39
15444;BME280;7822;48.146;11.576;2023-02-18T10:23:19;95722.00;;;14.52;61.15
15444;BME280;7822;48.146;11.576;2023-02-18T10:25:49;95720.22;;;14.52;61.12
15444;BME280;7822;48.146;11.576;2023-02-18T10:28:18;95716.78;;;14.52;61.29
15444;BME280;7822;48.146;11.576;2023-02-18T10:30:53;95718.44;;;14.53;61.23
15444;BME280;7822;48.146;11.576;2023-02-18T10:33:32;95699.31;;;14.52;61.23
15444;BME280;7822;48.146;11.576;2023-02-18T10:36:09;95709.66;;;14.54;61.23
15444;BME280;7822;48.146;11.576;2023-02-18T10:38:44;95712.38;;;14.52;61.54
15444;BME280;7822;48.146;11.576;2023-02-18T10:41:33;95708.81;;;14.53;61.42
15444;BME280;7822;48.146;11.576;2023-02-18T10:44:11;95694.00;;;14.54;61.30
15444;BME280;7822;48.146;11.576;2023-02-18T10:46:48;95701.00;;;14.53;61.43
15444;BME280;7822;48.146;11.576;2023-02-18T10:49:34;95704.44;;;14.54;61.12
15444;BME280;7822;48.146;11.576;2023-02-18T10:52:13;95687.09;;;14.53;61.04
15444;BME280;7822;48.146;11.576;2023-02-18T10:54:48;95685.31;;;14.53;60.99
15444;BME280;7822;48.146;11.576;2023-02-18T10:57:19;95677.59;;;14.52;61.18
15444;BME280;7822;48.146;11.576;2023-02-18T10:59:56;95685.44;;;14.52;61.00
15444;BME280;7822;48.146;11.576;2023-02-18T11:02:26;95685.44;;;14.52;61.35
15444;BME280;7822;48.146;11.576;2023-02-18T11:04:57;95673.22;;;14.52;61.25
15444;BME280;7822;48.146;11.576;2023-02-18T11:07:30;95654.25;;;14.50;61.02
15444;BME280;7822;48.146;11.576;2023-02-18T11:10:01;95647.25;;;14.51;61.10
15444;BME280;7822;48.146;11.576;2023-02-18T11:12:43;95648.09;;;14.51;61.17
15444;BME280;7822;48.146;11.576;2023-02-18T11:15:19;95640.38;;;14.50;61.48
15444;BME280;7822;48.146;11.576;2023-02-18T11:17:48;95635.03;;;14.51;61.11
15444;BME280;7822;48.146;11.576;2023-02-18T11:20:28;95622.94;;;14.50;61.06
15444;BME280;7822;48.146;11.576;2023-02-18T11:22:59;95629.13;;;14.49;61.36
15444;BME280;7822;48.146;11.576;2023-02-18T11:25:40;95632.53;;;14.50;61.39
15444;BME280;7822;48.146;11.576;2023-02-18T11:28:27;95630.75;;;14.50;61.41
15444;BME280;7822;48.146;11.576;2023-02-18T11:30:58;95639.44;;;14.51;61.34
15444;BME280;7822;48.146;11.576;2023-02-18T11:33:31;95625.69;;;14.49;61.56
15444;BME280;7822;48.146;11.576;2023-02-18T11:36:04;95624.72;;;14.50;61.17
15444;BME280;7822;48.146;11.576;2023-02-18T11:38:43;95624.72;;;14.50;61.52
15444;BME280;7822;48.146;11.576;2023-02-18T11:41:15;95615.94;;;14.51;61.12
15444;BME280;7822;48.146;11.576;2023-02-18T11:43:48;95617.84;;;14.49;61.27
15444;BME280;7822;48.146;11.576;2023-02-18T11:46:18;95629.94;;;14.50;60.70
15444;BME280;7822;48.146;11.576;2023-02-18T11:48:46;95626.38;;;14.51;61.41
15444;BME280;7822;48.146;11.576;2023-02-18T11:51:17;95615.78;;;14.52;61.48
15444;BME280;7822;48.146;11.576;2023-02-18T11:53:58;95613.84;;;14.54;61.46
15444;BME280;7822;48.146;11.576;2023-02-18T11:56:29;95613.75;;;14.56;61.20
15444;BME280;7822;48.146;11.576;2023-02-18T11:58:59;95606.59;;;14.58;61.20
15444;BME280;7822;48.146;11.576;2023-02-18T12:01:34;95605.63;;;14.59;61.23
15444;BME280;7822;48.146;11.576;2023-02-18T12:04:07;95605.50;;;14.60;61.15
15444;BME280;7822;48.146;11.576;2023-02-18T12:06:38;95610.72;;;14.60;61.39
15444;BME280;7822;48.146;11.576;2023-02-18T12:09:18;95601.91;;;14.61;61.45
15444;BME280;7822;48.146;11.576;2023-02-18T12:11:48;95588.59;;;14.64;61.04
15444;BME280;7822;48.146;11.576;2023-02-18T12:14:21;95575.53;;;14.64;61.03
15444;BME280;7822;48.146;11.576;2023-02-18T12:17:09;95580.59;;;14.66;61.11
15444;BME280;7822;48.146;11.576;2023-02-18T12:19:59;95583.06;;;14.67;61.12
15444;BME280;7822;48.146;11.576;2023-02-18T12:22:37;95579.50;;;14.68;60.97
15444;BME280;7822;48.146;11.576;2023-02-18T12:25:24;95570.84;;;14.68;61.10
15444;BME280;7822;48.146;11.576;2023-02-18T12:28:03;95561.22;;;14.68;60.95
15444;BME280;7822;48.146;11.576;2023-02-18T12:30:43;95556.00;;;14.68;61.07
15444;BME280;7822;48.146;11.576;2023-02-18T12:33:20;95556.00;;;14.68;60.96
15444;BME280;7822;48.146;11.576;2023-02-18T12:36:01;95567.28;;;14.69;61.01
15444;BME280;7822;48.146;11.576;2023-02-18T12:38:50;95550.09;;;14.66;60.87
15444;BME280;7822;48.146;11.576;2023-02-18T12:41:32;95541.28;;;14.67;61.32
15444;BME280;7822;48.146;11.576;2023-02-18T12:44:13;95551.72;;;14.67;61.12
15444;BME280;7822;48.146;11.576;2023-02-18T12:47:00;95552.72;;;14.66;61.41
15444;BME280;7822;48.146;11.576;2023-02-18T12:49:45;95552.03;;;14.64;61.13
15444;BME280;7822;48.146;11.576;2023-02-18T12:52:26;95558.09;;;14.65;61.36
15444;BME280;7822;48.146;11.576;2023-02-18T12:55:22;95546.81;;;14.64;61.32
15444;BME280;7822;48.146;11.576;2023-02-18T12:58:02;95552.88;;;14.65;61.10
15444;BME280;7822;48.146;11.576;2023-02-18T13:00:51;95550.38;;;14.63;61.34
15444;BME280;7822;48.146;11.576;2023-02-18T13:03:37;95550.38;;;14.63;61.18
15444;BME280;7822;48.146;11.576;2023-02-18T13:06:24;95551.19;;;14.64;61.11
15444;BME280;7822;48.146;11.576;2023-02-18T13:09:04;95547.06;;;14.61;60.92
15444;BME280;7822;48.146;11.576;2023-02-18T13:11:40;95554.09;;;14.61;61.22
15444;BME280;7822;48.146;11.576;2023-02-18T13:14:12;95557.53;;;14.61;61.45
15444;BME280;7822;48.146;11.576;2023-02-18T13:16:43;95554.91;;;14.61;61.42
15444;BME280;7822;48.146;11.576;2023-02-18T13:19:18;95536.63;;;14.61;61.51
15444;BME280;7822;48.146;11.576;2023-02-18T13:21:49;95539.09;;;14.63;61.36
15444;BME280;7822;48.146;11.576;2023-02-18T13:24:25;95530.72;;;14.59;61.48